sensor_id;sensor_type;location;lat;lon;timestamp;pressure;altitude;pressure_sealevel;temperature;humidity
43420;BME280;29017;51.514;-0.178;2023-04-20T00:01:08;101954.59;;;9.47;68.49
43420;BME280;29017;51.514;-0.178;2023-04-20T00:03:36;101945.88;;;9.47;68.38
43420;BME280;29017;51.514;-0.178;2023-04-20T00:06:04;101951.00;;;9.48;69.95
43420;BME280;29017;51.514;-0.178;2023-04-20T00:08:31;101956.97;;;9.50;69.29
43420;BME280;29017;51.514;-0.178;2023-04-20T00:10:58;101947.53;;;9.48;68.81
43420;BME280;29017;51.514;-0.178;2023-04-20T00:13:25;101948.50;;;9.47;68.77
43420;BME280;29017;51.514;-0.178;2023-04-20T00:15:53;101951.00;;;9.48;68.95
43420;BME280;29017;51.514;-0.178;2023-04-20T00:18:20;101950.28;;;9.46;69.72
43420;BME280;29017;51.514;-0.178;2023-04-20T00:20:47;101941.81;;;9.42;69.25
43420;BME280;29017;51.514;-0.178;2023-04-20T00:23:14;101943.69;;;9.40;70.04
43420;BME280;29017;51.514;-0.178;2023-04-20T00:25:41;101934.97;;;9.40;69.62
43420;BME280;29017;51.514;-0.178;2023-04-20T00:28:08;101931.41;;;9.41;70.29
43420;BME280;29017;51.514;-0.178;2023-04-20T00:30:36;101934.97;;;9.40;70.05
43420;BME280;29017;51.514;-0.178;2023-04-20T00:33:03;101934.28;;;9.38;70.36
43420;BME280;29017;51.514;-0.178;2023-04-20T00:35:30;101937.00;;;9.36;70.47
43420;BME280;29017;51.514;-0.178;2023-04-20T00:37:57;101932.59;;;9.37;71.49
43420;BME280;29017;51.514;-0.178;2023-04-20T00:40:24;101929.03;;;9.38;71.19
43420;BME280;29017;51.514;-0.178;2023-04-20T00:42:51;101932.34;;;9.40;71.70
43420;BME280;29017;51.514;-0.178;2023-04-20T00:45:18;101927.59;;;9.34;71.66
43420;BME280;29017;51.514;-0.178;2023-04-20T00:47:47;101917.31;;;9.31;72.28
43420;BME280;29017;51.514;-0.178;2023-04-20T00:50:14;101920.78;;;9.31;73.02
43420;BME280;29017;51.514;-0.178;2023-04-20T00:52:41;101916.38;;;9.32;73.17
43420;BME280;29017;51.514;-0.178;2023-04-20T00:55:08;101916.25;;;9.33;73.96
43420;BME280;29017;51.514;-0.178;2023-04-20T00:57:35;101903.22;;;9.32;73.92
43420;BME280;29017;51.514;-0.178;2023-04-20T01:00:03;101908.38;;;9.33;73.93
43420;BME280;29017;51.514;-0.178;2023-04-20T01:02:32;101909.22;;;9.34;74.21
43420;BME280;29017;51.514;-0.178;2023-04-20T01:04:59;101905.03;;;9.31;74.51
43420;BME280;29017;51.514;-0.178;2023-04-20T01:07:27;101905.84;;;9.32;75.01
43420;BME280;29017;51.514;-0.178;2023-04-20T01:09:55;101901.44;;;9.32;75.34
43420;BME280;29017;51.514;-0.178;2023-04-20T01:12:22;101898.81;;;9.32;75.41
43420;BME280;29017;51.514;-0.178;2023-04-20T01:14:49;101891.50;;;9.25;75.56
43420;BME280;29017;51.514;-0.178;2023-04-20T01:17:16;101894.13;;;9.25;76.13
43420;BME280;29017;51.514;-0.178;2023-04-20T01:19:43;101893.34;;;9.24;76.08
43420;BME280;29017;51.514;-0.178;2023-04-20T01:24:40;101884.00;;;9.20;77.00
43420;BME280;29017;51.514;-0.178;2023-04-20T01:27:07;101880.31;;;9.23;77.08
43420;BME280;29017;51.514;-0.178;2023-04-20T01:29:34;101879.72;;;9.19;77.31
43420;BME280;29017;51.514;-0.178;2023-04-20T01:32:01;101880.41;;;9.21;77.69
43420;BME280;29017;51.514;-0.178;2023-04-20T01:34:28;101868.00;;;9.12;77.80
43420;BME280;29017;51.514;-0.178;2023-04-20T01:36:55;101878.25;;;9.15;77.97
43420;BME280;29017;51.514;-0.178;2023-04-20T01:39:22;101869.91;;;9.10;78.34
43420;BME280;29017;51.514;-0.178;2023-04-20T01:41:50;101872.16;;;9.15;78.56
43420;BME280;29017;51.514;-0.178;2023-04-20T01:44:17;101865.28;;;9.14;79.44
43420;BME280;29017;51.514;-0.178;2023-04-20T01:46:44;101870.16;;;9.18;78.88
43420;BME280;29017;51.514;-0.178;2023-04-20T01:49:11;101866.34;;;9.22;79.00
43420;BME280;29017;51.514;-0.178;2023-04-20T01:51:38;101856.44;;;9.26;78.94
43420;BME280;29017;51.514;-0.178;2023-04-20T01:54:05;101858.84;;;9.29;79.05
43420;BME280;29017;51.514;-0.178;2023-04-20T01:56:32;101855.38;;;9.28;79.14
43420;BME280;29017;51.514;-0.178;2023-04-20T01:58:59;101858.00;;;9.28;79.17
43420;BME280;29017;51.514;-0.178;2023-04-20T02:01:26;101860.25;;;9.33;78.90
43420;BME280;29017;51.514;-0.178;2023-04-20T02:03:53;101857.16;;;9.28;79.28
43420;BME280;29017;51.514;-0.178;2023-04-20T02:06:20;101855.47;;;9.27;79.10
43420;BME280;29017;51.514;-0.178;2023-04-20T02:08:47;101854.06;;;9.23;79.36
43420;BME280;29017;51.514;-0.178;2023-04-20T02:11:14;101853.22;;;9.22;79.60
43420;BME280;29017;51.514;-0.178;2023-04-20T02:13:41;101852.38;;;9.22;80.19
43420;BME280;29017;51.514;-0.178;2023-04-20T02:16:08;101857.53;;;9.23;80.38
43420;BME280;29017;51.514;-0.178;2023-04-20T02:18:35;101853.81;;;9.26;80.71
43420;BME280;29017;51.514;-0.178;2023-04-20T02:21:04;101850.97;;;9.29;80.45
43420;BME280;29017;51.514;-0.178;2023-04-20T02:23:31;101852.38;;;9.33;80.00
43420;BME280;29017;51.514;-0.178;2023-04-20T02:25:58;101849.88;;;9.31;79.72
43420;BME280;29017;51.514;-0.178;2023-04-20T02:28:25;101849.03;;;9.31;79.98
43420;BME280;29017;51.514;-0.178;2023-04-20T02:30:52;101844.88;;;9.28;80.38
43420;BME280;29017;51.514;-0.178;2023-04-20T02:33:19;101843.19;;;9.27;80.52
43420;BME280;29017;51.514;-0.178;2023-04-20T02:35:47;101837.09;;;9.27;80.38
43420;BME280;29017;51.514;-0.178;2023-04-20T02:38:14;101835.41;;;9.26;80.74
43420;BME280;29017;51.514;-0.178;2023-04-20T02:40:41;101846.19;;;9.23;80.43
43420;BME280;29017;51.514;-0.178;2023-04-20T02:43:08;101846.88;;;9.25;80.48
43420;BME280;29017;51.514;-0.178;2023-04-20T02:45:35;101849.03;;;9.20;80.67
43420;BME280;29017;51.514;-0.178;2023-04-20T02:48:02;101844.03;;;9.17;80.91
43420;BME280;29017;51.514;-0.178;2023-04-20T02:50:29;101844.03;;;9.17;81.05
43420;BME280;29017;51.514;-0.178;2023-04-20T02:52:56;101836.41;;;9.14;81.02
43420;BME280;29017;51.514;-0.178;2023-04-20T02:55:23;101844.97;;;9.16;81.78
43420;BME280;29017;51.514;-0.178;2023-04-20T02:57:50;101852.00;;;9.15;81.06
43420;BME280;29017;51.514;-0.178;2023-04-20T03:00:18;101850.22;;;9.16;81.32
43420;BME280;29017;51.514;-0.178;2023-04-20T03:02:45;101834.81;;;9.11;80.94
43420;BME280;29017;51.514;-0.178;2023-04-20T03:05:12;101835.41;;;9.15;81.10
43420;BME280;29017;51.514;-0.178;2023-04-20T03:07:39;101841.50;;;9.15;81.30
43420;BME280;29017;51.514;-0.178;2023-04-20T03:10:07;101837.09;;;9.16;81.25
43420;BME280;29017;51.514;-0.178;2023-04-20T03:12:34;101832.94;;;9.13;80.81
43420;BME280;29017;51.514;-0.178;2023-04-20T03:15:02;101832.94;;;9.13;81.47
43420;BME280;29017;51.514;-0.178;2023-04-20T03:17:30;101848.06;;;9.10;80.90
43420;BME280;29017;51.514;-0.178;2023-04-20T03:19:57;101842.81;;;9.10;81.10
43420;BME280;29017;51.514;-0.178;2023-04-20T03:22:24;101836.84;;;9.08;80.85
43420;BME280;29017;51.514;-0.178;2023-04-20T03:24:52;101836.59;;;9.11;80.92
43420;BME280;29017;51.514;-0.178;2023-04-20T03:27:19;101826.09;;;9.11;81.05
43420;BME280;29017;51.514;-0.178;2023-04-20T03:29:46;101845.31;;;9.11;81.05
43420;BME280;29017;51.514;-0.178;2023-04-20T03:32:14;101836.41;;;9.14;81.53
43420;BME280;29017;51.514;-0.178;2023-04-20T03:34:41;101833.63;;;9.15;81.79
43420;BME280;29017;51.514;-0.178;2023-04-20T03:37:08;101840.56;;;9.16;81.93
43420;BME280;29017;51.514;-0.178;2023-04-20T03:39:35;101834.25;;;9.19;81.38
43420;BME280;29017;51.514;-0.178;2023-04-20T03:42:02;101841.50;;;9.15;80.37
43420;BME280;29017;51.514;-0.178;2023-04-20T03:44:29;101839.03;;;9.14;80.60
43420;BME280;29017;51.514;-0.178;2023-04-20T03:46:56;101832.19;;;9.11;80.65
43420;BME280;29017;51.514;-0.178;2023-04-20T03:49:23;101847.09;;;9.11;81.02
43420;BME280;29017;51.514;-0.178;2023-04-20T03:51:51;101838.06;;;9.04;81.30
43420;BME280;29017;51.514;-0.178;2023-04-20T03:54:18;101848.31;;;9.07;81.25
43420;BME280;29017;51.514;-0.178;2023-04-20T03:56:45;101850.94;;;9.07;80.60
43420;BME280;29017;51.514;-0.178;2023-04-20T03:59:12;101840.53;;;9.05;80.71
43420;BME280;29017;51.514;-0.178;2023-04-20T04:01:39;101847.09;;;8.99;81.36
43420;BME280;29017;51.514;-0.178;2023-04-20T04:04:06;101849.59;;;9.01;81.24
43420;BME280;29017;51.514;-0.178;2023-04-20T04:06:33;101840.78;;;9.02;81.60
43420;BME280;29017;51.514;-0.178;2023-04-20T04:09:01;101846.97;;;9.01;81.39
43420;BME280;29017;51.514;-0.178;2023-04-20T04:11:28;101852.13;;;9.02;80.47
43420;BME280;29017;51.514;-0.178;2023-04-20T04:13:57;101845.94;;;9.04;80.20
43420;BME280;29017;51.514;-0.178;2023-04-20T04:16:25;101850.34;;;9.03;81.47
43420;BME280;29017;51.514;-0.178;2023-04-20T04:18:52;101850.19;;;9.05;80.51
43420;BME280;29017;51.514;-0.178;2023-04-20T04:21:19;101854.63;;;9.04;80.79
43420;BME280;29017;51.514;-0.178;2023-04-20T04:23:46;101847.72;;;9.03;80.67
43420;BME280;29017;51.514;-0.178;2023-04-20T04:26:13;101846.88;;;9.02;80.92
43420;BME280;29017;51.514;-0.178;2023-04-20T04:28:40;101851.63;;;8.97;80.45
43420;BME280;29017;51.514;-0.178;2023-04-20T04:31:07;101847.09;;;8.99;81.30
43420;BME280;29017;51.514;-0.178;2023-04-20T04:33:35;101856.44;;;9.04;79.55
43420;BME280;29017;51.514;-0.178;2023-04-20T04:36:02;101858.31;;;9.01;79.61
43420;BME280;29017;51.514;-0.178;2023-04-20T04:38:30;101856.66;;;9.00;79.35
43420;BME280;29017;51.514;-0.178;2023-04-20T04:40:58;101855.81;;;9.00;79.94
43420;BME280;29017;51.514;-0.178;2023-04-20T04:43:26;101850.56;;;9.00;79.64
43420;BME280;29017;51.514;-0.178;2023-04-20T04:45:53;101851.50;;;8.99;79.63
43420;BME280;29017;51.514;-0.178;2023-04-20T04:48:21;101852.22;;;9.01;79.25
43420;BME280;29017;51.514;-0.178;2023-04-20T04:50:48;101853.91;;;9.02;78.86
43420;BME280;29017;51.514;-0.178;2023-04-20T04:53:15;101859.06;;;9.04;78.96
43420;BME280;29017;51.514;-0.178;2023-04-20T04:55:42;101854.84;;;9.01;79.08
43420;BME280;29017;51.514;-0.178;2023-04-20T04:58:09;101852.81;;;9.05;79.41
43420;BME280;29017;51.514;-0.178;2023-04-20T05:00:37;101860.38;;;9.09;77.85
43420;BME280;29017;51.514;-0.178;2023-04-20T05:03:04;101852.50;;;9.09;77.90
43420;BME280;29017;51.514;-0.178;2023-04-20T05:05:31;101855.00;;;9.11;78.06
43420;BME280;29017;51.514;-0.178;2023-04-20T05:07:58;101857.41;;;9.14;77.47
43420;BME280;29017;51.514;-0.178;2023-04-20T05:10:25;101859.19;;;9.13;77.38
43420;BME280;29017;51.514;-0.178;2023-04-20T05:12:52;101870.53;;;9.14;76.64
43420;BME280;29017;51.514;-0.178;2023-04-20T05:15:19;101862.50;;;9.15;77.14
43420;BME280;29017;51.514;-0.178;2023-04-20T05:17:46;101871.81;;;9.08;76.59
43420;BME280;29017;51.514;-0.178;2023-04-20T05:20:15;101863.94;;;9.08;76.60
43420;BME280;29017;51.514;-0.178;2023-04-20T05:22:42;101874.31;;;9.10;76.23
43420;BME280;29017;51.514;-0.178;2023-04-20T05:25:09;101878.13;;;9.06;76.22
43420;BME280;29017;51.514;-0.178;2023-04-20T05:27:39;101872.97;;;9.04;76.52
43420;BME280;29017;51.514;-0.178;2023-04-20T05:30:06;101870.25;;;9.06;76.53
43420;BME280;29017;51.514;-0.178;2023-04-20T05:32:46;101878.97;;;9.06;76.20
43420;BME280;29017;51.514;-0.178;2023-04-20T05:35:17;101881.50;;;9.08;76.31
43420;BME280;29017;51.514;-0.178;2023-04-20T05:37:47;101875.03;;;9.12;77.56
43420;BME280;29017;51.514;-0.178;2023-04-20T05:40:14;101871.13;;;9.17;75.70
43420;BME280;29017;51.514;-0.178;2023-04-20T05:42:41;101869.06;;;9.21;76.09
43420;BME280;29017;51.514;-0.178;2023-04-20T05:45:09;101875.91;;;9.23;75.88
43420;BME280;29017;51.514;-0.178;2023-04-20T05:47:36;101876.50;;;9.27;74.43
43420;BME280;29017;51.514;-0.178;2023-04-20T05:50:03;101886.75;;;9.30;75.04
43420;BME280;29017;51.514;-0.178;2023-04-20T05:52:30;101875.19;;;9.32;74.89
43420;BME280;29017;51.514;-0.178;2023-04-20T05:54:57;101871.34;;;9.36;75.24
43420;BME280;29017;51.514;-0.178;2023-04-20T05:57:25;101877.56;;;9.35;74.19
43420;BME280;29017;51.514;-0.178;2023-04-20T05:59:52;101872.69;;;9.42;74.91
43420;BME280;29017;51.514;-0.178;2023-04-20T06:02:21;101875.31;;;9.42;74.54
43420;BME280;29017;51.514;-0.178;2023-04-20T06:04:48;101870.63;;;9.45;73.96
43420;BME280;29017;51.514;-0.178;2023-04-20T06:07:16;101871.94;;;9.51;74.55
43420;BME280;29017;51.514;-0.178;2023-04-20T06:09:43;101876.84;;;9.56;72.81
43420;BME280;29017;51.514;-0.178;2023-04-20T06:12:10;101878.53;;;9.57;73.00
43420;BME280;29017;51.514;-0.178;2023-04-20T06:14:37;101887.81;;;9.61;72.36
43420;BME280;29017;51.514;-0.178;2023-04-20T06:17:04;101884.03;;;9.65;73.33
43420;BME280;29017;51.514;-0.178;2023-04-20T06:19:31;101892.38;;;9.70;73.91
43420;BME280;29017;51.514;-0.178;2023-04-20T06:21:58;101890.94;;;9.77;72.04
43420;BME280;29017;51.514;-0.178;2023-04-20T06:24:26;101888.66;;;9.83;71.37
43420;BME280;29017;51.514;-0.178;2023-04-20T06:26:53;101891.03;;;9.86;71.43
43420;BME280;29017;51.514;-0.178;2023-04-20T06:29:20;101887.56;;;9.86;70.71
43420;BME280;29017;51.514;-0.178;2023-04-20T06:31:47;101889.97;;;9.89;71.09
43420;BME280;29017;51.514;-0.178;2023-04-20T06:34:14;101890.06;;;9.99;70.59
43420;BME280;29017;51.514;-0.178;2023-04-20T06:36:42;101901.59;;;10.41;69.55
43420;BME280;29017;51.514;-0.178;2023-04-20T06:39:09;101886.28;;;10.87;66.41
43420;BME280;29017;51.514;-0.178;2023-04-20T06:41:38;101894.72;;;11.02;65.56
43420;BME280;29017;51.514;-0.178;2023-04-20T06:44:05;101888.38;;;11.14;65.18
43420;BME280;29017;51.514;-0.178;2023-04-20T06:46:32;101895.78;;;11.50;63.48
43420;BME280;29017;51.514;-0.178;2023-04-20T06:48:59;101889.13;;;11.77;62.60
43420;BME280;29017;51.514;-0.178;2023-04-20T06:51:27;101888.84;;;11.89;63.02
43420;BME280;29017;51.514;-0.178;2023-04-20T06:53:55;101892.97;;;12.41;61.18
43420;BME280;29017;51.514;-0.178;2023-04-20T06:56:22;101888.94;;;12.76;59.97
43420;BME280;29017;51.514;-0.178;2023-04-20T06:58:49;101885.69;;;13.01;60.28
43420;BME280;29017;51.514;-0.178;2023-04-20T07:01:16;101895.41;;;13.30;60.33
43420;BME280;29017;51.514;-0.178;2023-04-20T07:03:43;101886.44;;;13.50;57.45
43420;BME280;29017;51.514;-0.178;2023-04-20T07:06:12;101891.88;;;13.76;57.74
43420;BME280;29017;51.514;-0.178;2023-04-20T07:08:40;101886.13;;;13.80;56.39
43420;BME280;29017;51.514;-0.178;2023-04-20T07:11:07;101892.09;;;13.82;56.52
43420;BME280;29017;51.514;-0.178;2023-04-20T07:13:34;101897.13;;;13.85;57.40
43420;BME280;29017;51.514;-0.178;2023-04-20T07:16:01;101901.84;;;14.09;56.28
43420;BME280;29017;51.514;-0.178;2023-04-20T07:18:29;101887.25;;;13.78;56.67
43420;BME280;29017;51.514;-0.178;2023-04-20T07:21:00;101889.19;;;13.48;58.30
43420;BME280;29017;51.514;-0.178;2023-04-20T07:23:27;101892.50;;;13.04;59.42
43420;BME280;29017;51.514;-0.178;2023-04-20T07:25:55;101894.06;;;12.87;60.50
43420;BME280;29017;51.514;-0.178;2023-04-20T07:28:22;101885.75;;;12.43;61.64
43420;BME280;29017;51.514;-0.178;2023-04-20T07:30:49;101880.59;;;12.23;63.05
43420;BME280;29017;51.514;-0.178;2023-04-20T07:33:17;101880.31;;;12.35;63.22
43420;BME280;29017;51.514;-0.178;2023-04-20T07:35:44;101876.31;;;12.41;63.36
43420;BME280;29017;51.514;-0.178;2023-04-20T07:38:12;101875.34;;;12.32;64.23
43420;BME280;29017;51.514;-0.178;2023-04-20T07:40:41;101874.38;;;12.24;63.63
43420;BME280;29017;51.514;-0.178;2023-04-20T07:43:08;101874.22;;;12.44;62.51
43420;BME280;29017;51.514;-0.178;2023-04-20T07:45:38;101873.34;;;12.92;61.21
43420;BME280;29017;51.514;-0.178;2023-04-20T07:48:05;101872.41;;;13.67;58.58
43420;BME280;29017;51.514;-0.178;2023-04-20T07:50:32;101873.88;;;14.60;57.61
43420;BME280;29017;51.514;-0.178;2023-04-20T07:52:59;101880.19;;;15.62;52.20
43420;BME280;29017;51.514;-0.178;2023-04-20T07:55:26;101871.41;;;16.36;48.67
43420;BME280;29017;51.514;-0.178;2023-04-20T07:57:57;101868.97;;;16.58;47.60
43420;BME280;29017;51.514;-0.178;2023-04-20T08:00:25;101865.09;;;17.09;46.73
43420;BME280;29017;51.514;-0.178;2023-04-20T08:02:52;101862.31;;;17.89;46.23
43420;BME280;29017;51.514;-0.178;2023-04-20T08:05:20;101869.03;;;18.38;43.24
43420;BME280;29017;51.514;-0.178;2023-04-20T08:07:48;101856.03;;;18.35;41.07
43420;BME280;29017;51.514;-0.178;2023-04-20T08:10:15;101859.34;;;17.84;42.29
43420;BME280;29017;51.514;-0.178;2023-04-20T08:12:42;101869.28;;;17.67;42.99
43420;BME280;29017;51.514;-0.178;2023-04-20T08:15:10;101869.41;;;17.74;43.28
43420;BME280;29017;51.514;-0.178;2023-04-20T08:17:37;101871.47;;;16.84;42.32
43420;BME280;29017;51.514;-0.178;2023-04-20T08:20:05;101861.00;;;16.50;43.13
43420;BME280;29017;51.514;-0.178;2023-04-20T08:22:32;101856.63;;;16.17;44.50
43420;BME280;29017;51.514;-0.178;2023-04-20T08:24:59;101859.03;;;15.78;44.40
43420;BME280;29017;51.514;-0.178;2023-04-20T08:27:26;101851.53;;;15.39;45.03
43420;BME280;29017;51.514;-0.178;2023-04-20T08:29:56;101862.22;;;14.70;46.38
43420;BME280;29017;51.514;-0.178;2023-04-20T08:32:23;101851.25;;;14.30;48.13
43420;BME280;29017;51.514;-0.178;2023-04-20T08:34:52;101845.34;;;14.00;48.48
43420;BME280;29017;51.514;-0.178;2023-04-20T08:37:20;101844.72;;;13.71;47.62
43420;BME280;29017;51.514;-0.178;2023-04-20T08:39:47;101854.91;;;13.56;48.24
43420;BME280;29017;51.514;-0.178;2023-04-20T08:42:14;101844.75;;;13.34;47.43
43420;BME280;29017;51.514;-0.178;2023-04-20T08:44:42;101846.19;;;13.09;47.51
43420;BME280;29017;51.514;-0.178;2023-04-20T08:47:10;101849.03;;;12.89;46.94
43420;BME280;29017;51.514;-0.178;2023-04-20T08:49:38;101839.31;;;12.79;47.65
43420;BME280;29017;51.514;-0.178;2023-04-20T08:52:06;101828.75;;;12.70;47.31
43420;BME280;29017;51.514;-0.178;2023-04-20T08:54:37;101834.31;;;12.76;48.43
43420;BME280;29017;51.514;-0.178;2023-04-20T08:57:14;101827.91;;;12.79;48.41
43420;BME280;29017;51.514;-0.178;2023-04-20T08:59:42;101819.28;;;12.86;48.84
43420;BME280;29017;51.514;-0.178;2023-04-20T09:02:10;101822.44;;;13.00;48.73
43420;BME280;29017;51.514;-0.178;2023-04-20T09:04:38;101814.91;;;13.14;48.78
43420;BME280;29017;51.514;-0.178;2023-04-20T09:07:15;101821.56;;;13.18;46.68
43420;BME280;29017;51.514;-0.178;2023-04-20T09:12:17;101808.34;;;13.18;46.19
43420;BME280;29017;51.514;-0.178;2023-04-20T09:14:47;101815.44;;;13.18;45.35
43420;BME280;29017;51.514;-0.178;2023-04-20T09:17:15;101809.53;;;13.34;45.13
43420;BME280;29017;51.514;-0.178;2023-04-20T09:19:44;101812.97;;;13.44;45.25
43420;BME280;29017;51.514;-0.178;2023-04-20T09:22:11;101804.47;;;13.50;44.38
43420;BME280;29017;51.514;-0.178;2023-04-20T09:24:38;101794.44;;;13.71;44.69
43420;BME280;29017;51.514;-0.178;2023-04-20T09:29:37;101801.97;;;14.11;43.80
43420;BME280;29017;51.514;-0.178;2023-04-20T09:32:04;101794.97;;;14.28;41.96
43420;BME280;29017;51.514;-0.178;2023-04-20T09:34:41;101810.94;;;14.36;41.99
43420;BME280;29017;51.514;-0.178;2023-04-20T09:37:09;101785.84;;;14.40;40.50
43420;BME280;29017;51.514;-0.178;2023-04-20T09:39:40;101794.00;;;14.46;40.30
43420;BME280;29017;51.514;-0.178;2023-04-20T09:42:10;101806.94;;;14.49;40.41
43420;BME280;29017;51.514;-0.178;2023-04-20T09:44:39;101789.47;;;14.39;39.76
43420;BME280;29017;51.514;-0.178;2023-04-20T09:47:06;101776.91;;;14.23;39.56
43420;BME280;29017;51.514;-0.178;2023-04-20T09:49:34;101784.84;;;14.23;39.75
43420;BME280;29017;51.514;-0.178;2023-04-20T09:52:01;101771.22;;;14.36;38.90
43420;BME280;29017;51.514;-0.178;2023-04-20T09:54:29;101765.72;;;14.47;38.71
43420;BME280;29017;51.514;-0.178;2023-04-20T09:56:58;101762.75;;;14.50;38.90
43420;BME280;29017;51.514;-0.178;2023-04-20T09:59:25;101763.56;;;14.50;38.68
43420;BME280;29017;51.514;-0.178;2023-04-20T10:01:53;101748.69;;;14.32;39.25
43420;BME280;29017;51.514;-0.178;2023-04-20T10:04:20;101746.66;;;14.26;39.17
43420;BME280;29017;51.514;-0.178;2023-04-20T10:06:51;101735.84;;;14.37;40.09
43420;BME280;29017;51.514;-0.178;2023-04-20T10:09:21;101731.78;;;14.50;40.09
43420;BME280;29017;51.514;-0.178;2023-04-20T10:11:48;101721.59;;;14.64;39.84
43420;BME280;29017;51.514;-0.178;2023-04-20T10:14:21;101726.47;;;14.76;39.47
43420;BME280;29017;51.514;-0.178;2023-04-20T10:19:19;101723.50;;;14.79;39.72
43420;BME280;29017;51.514;-0.178;2023-04-20T10:21:47;101704.13;;;14.79;38.81
43420;BME280;29017;51.514;-0.178;2023-04-20T10:24:15;101696.38;;;14.85;39.35
43420;BME280;29017;51.514;-0.178;2023-04-20T10:26:45;101696.72;;;14.90;38.63
43420;BME280;29017;51.514;-0.178;2023-04-20T10:31:43;101695.47;;;15.03;38.46
43420;BME280;29017;51.514;-0.178;2023-04-20T10:34:10;101706.56;;;15.06;38.28
43420;BME280;29017;51.514;-0.178;2023-04-20T10:36:37;101687.47;;;14.94;37.86
43420;BME280;29017;51.514;-0.178;2023-04-20T10:41:35;101686.41;;;14.79;37.41
43420;BME280;29017;51.514;-0.178;2023-04-20T10:46:33;101667.50;;;14.74;38.58
43420;BME280;29017;51.514;-0.178;2023-04-20T10:49:00;101665.91;;;14.81;38.38
43420;BME280;29017;51.514;-0.178;2023-04-20T10:51:28;101657.47;;;14.86;38.59
43420;BME280;29017;51.514;-0.178;2023-04-20T10:53:57;101656.66;;;14.93;39.50
43420;BME280;29017;51.514;-0.178;2023-04-20T10:56:24;101647.75;;;15.03;39.70
43420;BME280;29017;51.514;-0.178;2023-04-20T10:58:52;101642.97;;;15.06;38.83
43420;BME280;29017;51.514;-0.178;2023-04-20T11:01:20;101666.00;;;15.14;39.20
43420;BME280;29017;51.514;-0.178;2023-04-20T11:03:48;101645.59;;;15.06;38.67
43420;BME280;29017;51.514;-0.178;2023-04-20T11:06:17;101641.97;;;15.15;39.10
43420;BME280;29017;51.514;-0.178;2023-04-20T11:08:44;101658.22;;;15.20;39.72
43420;BME280;29017;51.514;-0.178;2023-04-20T11:13:42;101637.16;;;15.19;38.33
43420;BME280;29017;51.514;-0.178;2023-04-20T11:16:10;101640.16;;;15.24;38.14
43420;BME280;29017;51.514;-0.178;2023-04-20T11:21:08;101623.91;;;15.11;38.88
43420;BME280;29017;51.514;-0.178;2023-04-20T11:23:36;101628.91;;;15.22;38.58
43420;BME280;29017;51.514;-0.178;2023-04-20T11:26:04;101622.97;;;15.28;39.22
43420;BME280;29017;51.514;-0.178;2023-04-20T11:28:31;101628.75;;;15.31;38.34
43420;BME280;29017;51.514;-0.178;2023-04-20T11:31:00;101627.44;;;15.44;39.22
43420;BME280;29017;51.514;-0.178;2023-04-20T11:33:28;101609.75;;;15.52;39.38
43420;BME280;29017;51.514;-0.178;2023-04-20T11:35:56;101638.22;;;15.50;39.30
43420;BME280;29017;51.514;-0.178;2023-04-20T11:40:53;101603.59;;;15.52;39.18
43420;BME280;29017;51.514;-0.178;2023-04-20T11:43:22;101590.31;;;15.60;39.77
43420;BME280;29017;51.514;-0.178;2023-04-20T11:45:49;101592.16;;;15.67;39.95
43420;BME280;29017;51.514;-0.178;2023-04-20T11:48:16;101594.16;;;15.73;39.76
43420;BME280;29017;51.514;-0.178;2023-04-20T11:50:44;101601.94;;;15.83;39.85
43420;BME280;29017;51.514;-0.178;2023-04-20T11:53:12;101587.16;;;15.80;39.08
43420;BME280;29017;51.514;-0.178;2023-04-20T11:55:40;101577.72;;;15.78;38.83
43420;BME280;29017;51.514;-0.178;2023-04-20T11:58:07;101577.91;;;15.68;38.70
43420;BME280;29017;51.514;-0.178;2023-04-20T12:00:35;101560.97;;;15.61;38.62
43420;BME280;29017;51.514;-0.178;2023-04-20T12:03:02;101568.28;;;15.51;38.36
43420;BME280;29017;51.514;-0.178;2023-04-20T12:05:30;101573.09;;;15.56;38.51
43420;BME280;29017;51.514;-0.178;2023-04-20T12:07:57;101552.22;;;15.53;38.17
43420;BME280;29017;51.514;-0.178;2023-04-20T12:10:24;101558.69;;;15.58;38.16
43420;BME280;29017;51.514;-0.178;2023-04-20T12:12:51;101550.84;;;15.65;38.10
43420;BME280;29017;51.514;-0.178;2023-04-20T12:15:19;101558.00;;;15.64;36.80
43420;BME280;29017;51.514;-0.178;2023-04-20T12:17:46;101541.25;;;15.56;36.78
43420;BME280;29017;51.514;-0.178;2023-04-20T12:20:14;101544.41;;;15.67;36.78
43420;BME280;29017;51.514;-0.178;2023-04-20T12:22:41;101550.38;;;15.69;35.95
43420;BME280;29017;51.514;-0.178;2023-04-20T12:25:08;101540.25;;;15.73;36.21
43420;BME280;29017;51.514;-0.178;2023-04-20T12:27:35;101529.28;;;15.76;36.43
43420;BME280;29017;51.514;-0.178;2023-04-20T12:30:03;101530.13;;;15.76;35.90
43420;BME280;29017;51.514;-0.178;2023-04-20T12:32:30;101528.63;;;15.82;36.16
43420;BME280;29017;51.514;-0.178;2023-04-20T12:34:57;101521.63;;;15.89;36.03
43420;BME280;29017;51.514;-0.178;2023-04-20T12:37:25;101530.41;;;15.98;36.22
43420;BME280;29017;51.514;-0.178;2023-04-20T12:39:53;101512.59;;;16.06;35.46
43420;BME280;29017;51.514;-0.178;2023-04-20T12:42:20;101518.72;;;16.15;36.12
43420;BME280;29017;51.514;-0.178;2023-04-20T12:44:47;101507.91;;;16.24;35.00
43420;BME280;29017;51.514;-0.178;2023-04-20T12:47:14;101513.84;;;16.26;34.74
43420;BME280;29017;51.514;-0.178;2023-04-20T12:49:42;101500.25;;;16.21;34.51
43420;BME280;29017;51.514;-0.178;2023-04-20T12:52:09;101506.41;;;16.22;34.87
43420;BME280;29017;51.514;-0.178;2023-04-20T12:54:37;101503.75;;;16.22;35.49
43420;BME280;29017;51.514;-0.178;2023-04-20T12:57:04;101493.13;;;16.22;34.74
43420;BME280;29017;51.514;-0.178;2023-04-20T12:59:31;101500.75;;;16.25;35.64
43420;BME280;29017;51.514;-0.178;2023-04-20T13:01:59;101495.09;;;16.28;34.38
43420;BME280;29017;51.514;-0.178;2023-04-20T13:04:26;101511.50;;;16.32;34.21
43420;BME280;29017;51.514;-0.178;2023-04-20T13:06:53;101485.63;;;16.25;34.22
43420;BME280;29017;51.514;-0.178;2023-04-20T13:09:21;101493.91;;;16.31;34.38
43420;BME280;29017;51.514;-0.178;2023-04-20T13:11:52;101483.81;;;16.26;34.19